createdAt,value
2022-08-04T14:08:26.333Z,23.27
2022-08-04T14:10:57.818Z,23.27
2022-08-04T14:13:41.845Z,23.59
2022-08-04T14:16:21.014Z,24.72
2022-08-04T14:18:58.549Z,24.86
2022-08-04T14:21:26.386Z,25.09
2022-08-04T14:23:56.119Z,24.67
2022-08-04T14:26:41.491Z,25.01
2022-08-04T14:29:26.999Z,25.12
2022-08-04T14:32:11.511Z,26.00
2022-08-04T14:34:45.719Z,27.23
2022-08-04T14:37:20.673Z,25.41
2022-08-04T14:40:17.368Z,24.35
2022-08-04T14:42:42.332Z,23.71
2022-08-04T14:45:10.864Z,23.32
2022-08-04T14:47:39.580Z,24.04
2022-08-04T14:50:09.306Z,23.19
2022-08-04T14:52:38.285Z,23.13
2022-08-04T14:55:25.304Z,22.77
2022-08-04T14:58:36.762Z,23.70
2022-08-04T15:00:40.695Z,23.46
2022-08-04T15:03:10.156Z,23.89
2022-08-04T15:05:55.061Z,23.83
2022-08-04T15:08:31.060Z,23.05
2022-08-04T15:11:02.794Z,22.50
2022-08-04T15:13:32.458Z,22.66
2022-08-04T15:16:04.071Z,22.53
2022-08-04T15:18:38.757Z,22.39
2022-08-04T15:21:08.060Z,22.50
2022-08-04T15:23:39.315Z,21.71
2022-08-04T15:26:16.985Z,22.49
2022-08-04T15:28:52.655Z,22.47
2022-08-04T15:32:07.675Z,22.65
2022-08-04T15:34:10.925Z,22.98
2022-08-04T15:36:56.515Z,23.42
2022-08-04T15:39:25.396Z,23.71
2022-08-04T15:42:16.234Z,23.48
2022-08-04T15:44:52.836Z,23.92
2022-08-04T15:47:20.801Z,23.92
2022-08-04T15:50:05.403Z,24.06
2022-08-04T15:53:12.509Z,24.33
2022-08-04T15:55:43.151Z,23.90
2022-08-04T15:58:13.948Z,24.38
2022-08-04T16:00:47.904Z,24.66
2022-08-04T16:04:00.366Z,24.90
2022-08-04T16:06:21.148Z,24.99
2022-08-04T16:08:57.686Z,25.38
2022-08-04T16:11:32.933Z,25.09
2022-08-04T16:14:18.781Z,25.16
2022-08-04T16:16:51.308Z,25.12
2022-08-04T16:20:01.732Z,25.27
2022-08-04T16:22:34.847Z,25.53
2022-08-04T16:25:02.665Z,25.85
2022-08-04T16:27:39.468Z,26.04
2022-08-04T16:30:14.082Z,25.77
2022-08-04T16:32:47.186Z,25.45
2022-08-04T16:35:21.370Z,25.65
2022-08-04T16:37:52.237Z,26.03
2022-08-04T16:40:37.593Z,26.24
2022-08-04T16:43:07.346Z,25.97
2022-08-04T16:45:52.550Z,26.37
2022-08-04T16:48:27.223Z,26.18
2022-08-04T16:50:57.466Z,26.20
2022-08-04T16:53:52.374Z,26.25
2022-08-04T16:56:29.799Z,26.21
2022-08-04T16:58:57.490Z,26.25
2022-08-04T17:01:32.376Z,26.52
2022-08-04T17:04:07.072Z,26.84
2022-08-04T17:06:43.593Z,27.07
2022-08-04T17:09:16.633Z,27.43
2022-08-04T17:11:46.578Z,27.52
2022-08-04T17:14:14.044Z,27.64
2022-08-04T17:16:43.220Z,27.84
2022-08-04T17:19:24.140Z,28.11
2022-08-04T17:22:03.837Z,28.39
2022-08-04T17:24:35.741Z,28.66
2022-08-04T17:28:08.888Z,28.85
2022-08-04T17:29:51.983Z,29.03
2022-08-04T17:32:21.899Z,29.24
2022-08-04T17:35:02.200Z,29.41
2022-08-04T17:37:39.183Z,29.75
2022-08-04T17:40:17.968Z,29.78
2022-08-04T17:43:02.211Z,30.36
2022-08-04T17:48:24.514Z,30.91
2022-08-04T17:50:52.538Z,31.21
2022-08-04T17:54:01.563Z,31.42
2022-08-04T17:56:36.344Z,31.71
2022-08-04T17:59:51.993Z,32.06
2022-08-04T18:02:23.604Z,32.17
2022-08-04T18:05:06.175Z,33.03
2022-08-04T18:08:45.460Z,32.93
2022-08-04T18:10:52.424Z,33.34
2022-08-04T18:13:27.846Z,34.12
2022-08-04T18:16:12.684Z,34.23
2022-08-04T18:19:12.971Z,34.76
2022-08-04T18:21:46.717Z,35.56
2022-08-04T18:24:35.708Z,35.50
2022-08-04T18:27:20.417Z,35.42
2022-08-04T18:29:50.178Z,35.17
2022-08-04T18:32:35.928Z,35.00
2022-08-04T18:38:06.856Z,35.50
2022-08-04T18:40:52.967Z,35.54
2022-08-04T18:43:28.393Z,35.73
2022-08-04T18:46:01.053Z,36.24
2022-08-04T18:48:36.914Z,36.26
2022-08-04T18:51:22.806Z,36.03
2022-08-04T18:53:55.342Z,35.91
2022-08-04T18:56:32.653Z,35.63
2022-08-04T18:59:03.079Z,35.89
2022-08-04T19:02:13.479Z,35.92
2022-08-04T19:04:33.265Z,35.88
2022-08-04T19:07:23.365Z,36.08
2022-08-04T19:09:52.076Z,36.05
2022-08-04T19:12:26.930Z,36.47
2022-08-04T19:15:08.503Z,36.50
2022-08-04T19:17:56.859Z,36.55
2022-08-04T19:20:28.215Z,36.75
2022-08-04T19:24:26.333Z,36.82
2022-08-04T19:26:02.348Z,36.87
2022-08-04T19:28:34.943Z,37.58
2022-08-04T19:31:05.532Z,38.04
2022-08-04T19:33:59.477Z,38.15
2022-08-04T19:36:27.851Z,38.70
2022-08-04T19:39:01.641Z,38.99
2022-08-04T19:41:31.921Z,39.84
2022-08-04T19:43:59.437Z,39.97
2022-08-04T19:46:28.468Z,40.74
2022-08-04T19:49:00.116Z,41.11
2022-08-04T19:51:30.553Z,41.03
2022-08-04T19:54:02.310Z,42.31
2022-08-04T19:56:40.151Z,42.33
2022-08-04T19:59:10.414Z,41.95
2022-08-04T20:01:44.672Z,40.71
2022-08-04T20:04:14.491Z,40.77
2022-08-04T20:06:43.107Z,41.12
2022-08-04T20:09:26.350Z,41.21
2022-08-04T20:11:56.330Z,40.84
2022-08-04T20:14:31.368Z,40.75
2022-08-04T20:17:10.482Z,40.36
2022-08-04T20:19:39.586Z,40.26
2022-08-04T20:22:50.851Z,40.55
2022-08-04T20:25:00.943Z,40.30
2022-08-04T20:27:51.722Z,40.35
2022-08-04T20:30:29.902Z,40.33
2022-08-04T20:32:57.882Z,40.34
2022-08-04T20:35:28.205Z,40.36
2022-08-04T20:37:59.971Z,40.54
2022-08-04T20:40:30.087Z,40.66
2022-08-04T20:42:59.223Z,40.60
2022-08-04T20:45:55.814Z,40.58
2022-08-04T20:48:15.335Z,40.89
2022-08-04T20:50:47.353Z,40.83
2022-08-04T20:53:16.530Z,41.00
2022-08-04T20:55:54.764Z,41.14
2022-08-04T20:58:27.260Z,41.44
2022-08-04T21:00:55.897Z,41.39
2022-08-04T21:03:49.256Z,41.58
2022-08-04T21:06:13.411Z,41.59
2022-08-04T21:08:43.848Z,41.73
2022-08-04T21:11:25.052Z,42.21
2022-08-04T21:14:01.876Z,42.31
2022-08-04T21:16:53.774Z,42.30
2022-08-04T21:19:17.693Z,42.68
2022-08-04T21:21:53.165Z,42.72
2022-08-04T21:24:25.920Z,42.85
2022-08-04T21:26:56.638Z,42.94
2022-08-04T21:29:34.625Z,43.02
2022-08-04T21:32:05.913Z,43.31
2022-08-04T21:34:39.173Z,42.90
2022-08-04T21:37:12.694Z,42.98
2022-08-04T21:39:50.275Z,43.35
2022-08-04T21:42:29.389Z,43.26
2022-08-04T21:44:58.502Z,43.17
2022-08-04T21:47:26.057Z,43.10
2022-08-04T21:50:13.840Z,43.42
2022-08-04T21:52:49.271Z,43.41
2022-08-04T21:55:17.768Z,43.30
2022-08-04T21:57:46.909Z,43.53
2022-08-04T22:00:19.689Z,43.38
2022-08-04T22:02:53.214Z,43.53
2022-08-04T22:05:22.465Z,43.58
2022-08-04T22:07:52.089Z,43.39
2022-08-04T22:10:32.348Z,43.20
2022-08-04T22:13:07.008Z,43.10
2022-08-04T22:16:04.954Z,43.46
2022-08-04T22:18:24.575Z,43.52
2022-08-04T22:20:55.461Z,43.97
2022-08-04T22:23:24.201Z,43.91
2022-08-04T22:25:55.470Z,43.95
2022-08-04T22:28:27.957Z,44.01
2022-08-04T22:30:57.444Z,43.98
2022-08-04T22:33:55.160Z,45.69
2022-08-04T22:36:15.362Z,46.30
2022-08-04T22:38:48.543Z,47.37
2022-08-04T22:41:21.220Z,48.16
2022-08-04T22:43:54.865Z,49.45
2022-08-04T22:46:30.076Z,49.87
2022-08-04T22:48:57.877Z,50.39
2022-08-04T22:51:27.135Z,50.01
2022-08-04T22:53:54.826Z,52.48
2022-08-04T22:56:37.954Z,52.28
2022-08-04T22:59:11.334Z,52.65
2022-08-04T23:01:58.791Z,51.86
2022-08-04T23:04:30.621Z,51.48
2022-08-04T23:06:58.645Z,52.37
2022-08-04T23:09:50.079Z,51.61
2022-08-04T23:12:30.167Z,52.35
2022-08-04T23:14:59.058Z,54.24
2022-08-04T23:17:28.330Z,54.44
2022-08-04T23:19:59.069Z,54.00
2022-08-04T23:22:41.580Z,53.73
2022-08-04T23:25:15.736Z,53.96
2022-08-04T23:27:51.432Z,54.94
2022-08-04T23:30:24.467Z,56.19
2022-08-04T23:32:54.034Z,57.48
2022-08-04T23:35:22.899Z,56.87
2022-08-04T23:37:56.612Z,57.36
2022-08-04T23:40:34.037Z,56.07
2022-08-04T23:43:17.356Z,55.66
2022-08-04T23:46:04.486Z,56.81
2022-08-04T23:48:36.970Z,56.70
2022-08-04T23:51:14.452Z,58.62
2022-08-04T23:54:03.622Z,58.66
2022-08-04T23:56:33.916Z,58.80
2022-08-04T23:59:04.031Z,58.90
